createdAt,value
2022-09-28T00:02:13.601Z,8.86
2022-09-28T00:04:43.428Z,8.86
2022-09-28T00:07:13.180Z,8.84
2022-09-28T00:09:43.084Z,8.80
2022-09-28T00:12:12.843Z,8.77
2022-09-28T00:14:44.213Z,8.64
2022-09-28T00:17:15.693Z,8.72
2022-09-28T00:19:45.912Z,8.71
2022-09-28T00:22:15.649Z,8.55
2022-09-28T00:24:45.454Z,8.65
2022-09-28T00:27:15.198Z,8.80
2022-09-28T00:29:44.974Z,8.73
2022-09-28T00:32:15.525Z,8.75
2022-09-28T00:34:48.892Z,9.02
2022-09-28T00:37:20.234Z,9.09
2022-09-28T00:39:50.510Z,8.99
2022-09-28T00:42:25.763Z,8.99
2022-09-28T00:44:59.300Z,9.18
2022-09-28T00:47:40.894Z,9.23
2022-09-28T00:50:14.668Z,9.34
2022-09-28T00:52:50.120Z,9.32
2022-09-28T00:55:22.800Z,9.22
2022-09-28T00:57:55.855Z,9.22
2022-09-28T01:00:26.666Z,9.25
2022-09-28T01:02:56.410Z,9.36
2022-09-28T01:05:27.600Z,9.28
2022-09-28T01:07:58.317Z,9.29
2022-09-28T01:10:31.065Z,9.43
2022-09-28T01:13:00.874Z,9.24
2022-09-28T01:15:32.791Z,9.12
2022-09-28T01:18:15.110Z,9.29
2022-09-28T01:20:54.252Z,9.35
2022-09-28T01:23:48.970Z,9.22
2022-09-28T01:26:27.691Z,9.21
2022-09-28T01:29:00.493Z,9.24
2022-09-28T01:31:33.304Z,9.26
2022-09-28T01:34:06.711Z,9.11
2022-09-28T01:36:39.949Z,9.14
2022-09-28T01:39:15.823Z,9.00
2022-09-28T01:41:48.570Z,9.07
2022-09-28T01:44:21.437Z,9.05
2022-09-28T01:46:53.605Z,8.98
2022-09-28T01:49:32.313Z,8.84
2022-09-28T01:52:13.898Z,8.81
2022-09-28T01:54:55.371Z,8.91
2022-09-28T01:57:33.773Z,8.91
2022-09-28T02:00:08.171Z,8.68
2022-09-28T02:02:48.942Z,8.72
2022-09-28T02:05:23.413Z,8.62
2022-09-28T02:08:08.050Z,8.49
2022-09-28T02:10:46.289Z,8.49
2022-09-28T02:13:24.837Z,8.45
2022-09-28T02:18:47.005Z,8.53
2022-09-28T02:21:20.567Z,8.49
2022-09-28T02:24:05.856Z,8.48
2022-09-28T02:26:41.339Z,8.38
2022-09-28T02:29:11.295Z,8.39
2022-09-28T02:31:41.263Z,8.43
2022-09-28T02:34:12.009Z,8.53
2022-09-28T02:36:41.808Z,8.48
2022-09-28T02:39:17.773Z,8.56
2022-09-28T02:42:08.440Z,8.40
2022-09-28T02:44:52.895Z,8.68
2022-09-28T02:47:31.733Z,8.80
2022-09-28T02:50:21.425Z,8.91
2022-09-28T02:53:09.052Z,8.90
2022-09-28T02:56:04.139Z,8.90
2022-09-28T02:58:56.190Z,8.88
2022-09-28T03:01:53.727Z,8.85
2022-09-28T03:04:38.356Z,8.98
2022-09-28T03:07:12.677Z,9.02
2022-09-28T03:09:45.725Z,8.97
2022-09-28T03:12:18.471Z,9.12
2022-09-28T03:14:48.883Z,8.90
2022-09-28T03:17:21.292Z,8.89
2022-09-28T03:19:51.052Z,9.08
2022-09-28T03:22:20.521Z,9.03
2022-09-28T03:24:50.298Z,8.86
2022-09-28T03:27:20.165Z,8.99
2022-09-28T03:29:49.986Z,9.01
2022-09-28T03:32:19.545Z,8.93
2022-09-28T03:34:49.656Z,9.10
2022-09-28T03:37:19.953Z,9.10
2022-09-28T03:39:49.684Z,9.09
2022-09-28T03:42:19.323Z,9.10
2022-09-28T03:44:50.795Z,9.00
2022-09-28T03:47:21.306Z,9.06
2022-09-28T03:49:51.024Z,9.25
2022-09-28T03:52:20.463Z,9.29
2022-09-28T03:54:50.283Z,9.10
2022-09-28T03:57:20.322Z,9.29
2022-09-28T03:59:50.065Z,9.31
2022-09-28T04:02:19.935Z,9.35
2022-09-28T04:04:49.694Z,9.23
2022-09-28T04:07:19.710Z,9.43
2022-09-28T04:09:49.477Z,9.33
2022-09-28T04:12:19.772Z,9.30
2022-09-28T04:14:50.889Z,9.33
2022-09-28T04:17:20.722Z,9.23
2022-09-28T04:19:50.700Z,9.21
2022-09-28T04:22:30.937Z,9.21
2022-09-28T04:25:00.725Z,9.11
2022-09-28T04:27:48.316Z,9.09
2022-09-28T04:30:18.603Z,8.92
2022-09-28T04:32:48.717Z,9.04
2022-09-28T04:35:19.182Z,8.83
2022-09-28T04:37:48.997Z,8.80
2022-09-28T04:40:18.811Z,8.60
2022-09-28T04:42:55.775Z,8.77
2022-09-28T04:45:27.365Z,8.63
2022-09-28T04:47:58.746Z,8.64
2022-09-28T04:50:49.429Z,8.68
2022-09-28T04:53:20.931Z,8.61
2022-09-28T04:56:02.087Z,8.65
2022-09-28T04:58:32.630Z,8.50
2022-09-28T05:01:06.813Z,8.49
2022-09-28T05:03:54.226Z,8.44
2022-09-28T05:06:27.112Z,8.42
2022-09-28T05:08:59.223Z,8.37
2022-09-28T05:11:28.950Z,8.39
2022-09-28T05:13:59.597Z,8.31
2022-09-28T05:16:30.908Z,8.39
2022-09-28T05:19:18.812Z,8.21
2022-09-28T05:21:49.103Z,8.25
2022-09-28T05:24:18.828Z,8.12
2022-09-28T05:26:50.660Z,8.17
2022-09-28T05:29:21.161Z,8.29
2022-09-28T05:32:08.725Z,8.33
2022-09-28T05:34:40.169Z,8.25
2022-09-28T05:37:11.344Z,8.29
2022-09-28T05:39:41.071Z,8.17
2022-09-28T05:42:11.656Z,8.17
2022-09-28T05:44:41.461Z,8.17
2022-09-28T05:47:11.543Z,8.05
2022-09-28T05:49:42.381Z,8.24
2022-09-28T05:52:13.187Z,8.14
2022-09-28T05:54:43.041Z,8.07
2022-09-28T05:57:13.477Z,8.15
2022-09-28T05:59:43.490Z,8.18
2022-09-28T06:02:13.377Z,8.22
2022-09-28T06:04:44.454Z,8.17
2022-09-28T06:07:14.468Z,8.12
2022-09-28T06:09:44.501Z,8.08
2022-09-28T06:12:21.412Z,8.10
2022-09-28T06:14:52.849Z,8.38
2022-09-28T06:17:23.995Z,8.45
2022-09-28T06:19:55.785Z,8.47
2022-09-28T06:22:29.682Z,8.65
2022-09-28T06:25:04.371Z,8.58
2022-09-28T06:27:34.829Z,8.79
2022-09-28T06:30:06.615Z,8.86
2022-09-28T06:32:36.363Z,9.02
2022-09-28T06:35:09.872Z,8.99
2022-09-28T06:37:39.750Z,9.17
2022-09-28T06:40:11.308Z,9.41
2022-09-28T06:42:41.193Z,9.41
2022-09-28T06:45:23.240Z,9.58
2022-09-28T06:47:57.460Z,9.21
2022-09-28T06:50:34.218Z,9.86
2022-09-28T06:53:21.993Z,9.99
2022-09-28T06:55:53.444Z,10.33
2022-09-28T06:58:24.011Z,10.33
2022-09-28T07:00:54.098Z,10.38
2022-09-28T07:03:24.237Z,10.44
2022-09-28T07:06:01.979Z,10.44
2022-09-28T07:08:56.813Z,10.21
2022-09-28T07:11:24.342Z,10.59
2022-09-28T07:14:22.311Z,10.44
2022-09-28T07:17:09.374Z,10.72
2022-09-28T07:19:16.469Z,10.59
2022-09-28T07:21:55.161Z,10.66
2022-09-28T07:24:17.960Z,10.64
2022-09-28T07:27:05.739Z,10.60
2022-09-28T07:29:37.177Z,10.88
2022-09-28T07:32:22.031Z,10.88
2022-09-28T07:35:04.229Z,10.88
2022-09-28T07:37:37.757Z,11.17
2022-09-28T07:40:27.696Z,11.17
2022-09-28T07:42:59.261Z,11.20
2022-09-28T07:45:30.082Z,11.20
2022-09-28T07:47:59.942Z,11.34
2022-09-28T07:50:34.205Z,11.45
2022-09-28T07:53:20.342Z,11.09
2022-09-28T07:56:04.493Z,10.92
2022-09-28T07:58:40.003Z,10.88
2022-09-28T08:01:23.367Z,10.92
2022-09-28T08:03:55.159Z,11.32
2022-09-28T08:06:25.136Z,11.51
2022-09-28T08:08:56.231Z,11.68
2022-09-28T08:11:27.654Z,11.58
2022-09-28T08:14:14.965Z,11.81
2022-09-28T08:16:51.998Z,12.03
2022-09-28T08:19:22.052Z,12.03
2022-09-28T08:21:52.248Z,12.04
2022-09-28T08:24:23.838Z,12.07
2022-09-28T08:26:55.497Z,12.06
2022-09-28T08:29:26.933Z,12.72
2022-09-28T08:32:01.974Z,13.08
2022-09-28T08:34:40.167Z,12.77
2022-09-28T08:37:20.582Z,12.78
2022-09-28T08:40:19.721Z,13.14
2022-09-28T08:43:03.059Z,13.12
2022-09-28T08:45:46.350Z,13.11
2022-09-28T08:48:41.410Z,13.33
2022-09-28T08:51:33.451Z,12.57
2022-09-28T08:54:14.801Z,12.57
2022-09-28T08:56:55.525Z,12.90
2022-09-28T08:59:28.689Z,12.43
2022-09-28T09:02:05.303Z,13.19
2022-09-28T09:04:35.822Z,13.62
2022-09-28T09:07:44.400Z,13.97
2022-09-28T09:10:30.151Z,14.03
2022-09-28T09:13:37.697Z,14.03
2022-09-28T09:16:24.145Z,13.77
2022-09-28T09:19:18.940Z,14.65
2022-09-28T09:22:18.705Z,14.80
2022-09-28T09:27:38.990Z,14.87
2022-09-28T09:30:20.175Z,15.42
2022-09-28T09:33:07.644Z,15.66
2022-09-28T09:35:47.640Z,15.23
2022-09-28T09:38:48.902Z,15.23
2022-09-28T09:41:48.331Z,15.15
2022-09-28T09:44:56.935Z,15.47
2022-09-28T09:47:46.448Z,15.08
2022-09-28T09:50:35.114Z,14.80
2022-09-28T09:53:14.314Z,15.03
2022-09-28T09:55:46.899Z,15.01
2022-09-28T09:58:33.094Z,15.00
2022-09-28T10:01:10.325Z,15.10
2022-09-28T10:03:44.807Z,15.58
2022-09-28T10:06:19.256Z,15.84
2022-09-28T10:08:52.040Z,15.98
2022-09-28T10:11:28.081Z,15.90
2022-09-28T10:13:58.342Z,15.77
2022-09-28T10:16:42.947Z,16.05
2022-09-28T10:19:14.803Z,16.46
2022-09-28T10:22:05.050Z,16.09
2022-09-28T10:24:45.239Z,16.97
2022-09-28T10:27:18.567Z,17.25
2022-09-28T10:29:54.720Z,17.33
2022-09-28T10:32:30.433Z,17.36
2022-09-28T10:35:22.504Z,17.49
2022-09-28T10:38:05.077Z,17.08
2022-09-28T10:40:43.388Z,16.69
2022-09-28T10:43:36.514Z,15.99
2022-09-28T10:46:12.917Z,15.96
2022-09-28T10:48:58.436Z,17.16
2022-09-28T10:51:47.240Z,17.08
2022-09-28T10:54:21.561Z,17.08
2022-09-28T10:56:54.982Z,17.01
2022-09-28T10:59:32.018Z,17.59
2022-09-28T11:02:12.351Z,17.52
2022-09-28T11:04:44.479Z,17.46
2022-09-28T11:07:20.288Z,17.13
2022-09-28T11:09:51.520Z,17.34
2022-09-28T11:12:23.817Z,16.90
2022-09-28T11:15:00.050Z,16.82
2022-09-28T11:17:36.566Z,17.40
2022-09-28T11:20:29.163Z,17.43
2022-09-28T11:23:03.452Z,17.28
2022-09-28T11:25:34.444Z,17.46
2022-09-28T11:28:06.565Z,17.63
2022-09-28T11:30:51.185Z,18.29
2022-09-28T11:33:46.181Z,18.73
2022-09-28T11:36:41.542Z,17.97
2022-09-28T11:39:17.943Z,17.11
2022-09-28T11:42:01.361Z,17.29
2022-09-28T11:44:43.239Z,16.64
2022-09-28T11:47:31.877Z,16.69
2022-09-28T11:50:10.851Z,17.38
2022-09-28T11:52:46.452Z,17.95
2022-09-28T11:55:17.134Z,18.58
2022-09-28T11:57:53.139Z,18.69
2022-09-28T12:00:23.627Z,18.22
2022-09-28T12:03:01.041Z,18.02
2022-09-28T12:05:36.794Z,17.72
2022-09-28T12:08:09.664Z,17.15
2022-09-28T12:11:13.686Z,17.22
2022-09-28T12:13:51.414Z,17.95
2022-09-28T12:17:03.739Z,18.17
2022-09-28T12:19:21.861Z,18.21
2022-09-28T12:21:54.636Z,17.51
2022-09-28T12:24:36.307Z,17.51
2022-09-28T12:27:17.607Z,17.73
2022-09-28T12:29:53.102Z,17.73
2022-09-28T12:32:40.648Z,17.73
2022-09-28T12:35:16.781Z,17.71
2022-09-28T12:37:53.931Z,18.93
2022-09-28T12:40:23.670Z,18.93
2022-09-28T12:43:00.041Z,18.50
2022-09-28T12:46:06.817Z,17.66
2022-09-28T12:48:39.506Z,17.55
2022-09-28T12:51:30.252Z,18.54
2022-09-28T12:54:11.697Z,18.41
2022-09-28T12:56:44.748Z,18.56
2022-09-28T12:59:20.816Z,18.12
2022-09-28T13:01:56.193Z,18.27
2022-09-28T13:04:47.279Z,18.27
2022-09-28T13:07:25.904Z,17.43
2022-09-28T13:09:58.657Z,16.86
2022-09-28T13:12:37.311Z,16.71
2022-09-28T13:15:17.152Z,17.07
2022-09-28T13:17:59.091Z,16.89
2022-09-28T13:20:35.770Z,16.48
2022-09-28T13:23:20.125Z,16.67
2022-09-28T13:26:04.949Z,16.29
2022-09-28T13:28:37.288Z,16.62
2022-09-28T13:31:08.815Z,16.77
2022-09-28T13:33:41.558Z,16.79
2022-09-28T13:36:32.598Z,16.12
2022-09-28T13:39:02.535Z,16.62
2022-09-28T13:41:37.635Z,16.62
2022-09-28T13:44:21.200Z,16.98
2022-09-28T13:47:20.608Z,16.91
2022-09-28T13:49:57.875Z,17.01
2022-09-28T13:52:42.567Z,16.50
2022-09-28T13:55:36.061Z,16.50
2022-09-28T13:58:25.851Z,16.65
2022-09-28T14:01:10.583Z,16.16
2022-09-28T14:03:46.056Z,15.47
2022-09-28T14:06:30.401Z,15.11
2022-09-28T14:09:18.056Z,15.00
2022-09-28T14:12:01.905Z,15.15
2022-09-28T14:14:35.101Z,14.98
2022-09-28T14:17:26.000Z,14.97
2022-09-28T14:20:07.520Z,14.43
2022-09-28T14:22:40.544Z,13.17
2022-09-28T14:25:27.643Z,13.17
2022-09-28T14:28:04.832Z,11.56
2022-09-28T14:30:46.557Z,11.63
2022-09-28T14:33:25.477Z,11.63
2022-09-28T14:36:06.592Z,11.69
2022-09-28T14:38:59.472Z,11.77
2022-09-28T14:41:35.247Z,11.77
2022-09-28T14:46:57.998Z,11.90
2022-09-28T14:49:36.879Z,11.99
2022-09-28T14:52:11.282Z,11.85
2022-09-28T14:54:45.207Z,11.87
2022-09-28T14:57:23.514Z,11.73
2022-09-28T14:59:53.879Z,11.60
2022-09-28T15:02:29.558Z,11.62
2022-09-28T15:05:02.579Z,11.68
2022-09-28T15:07:46.180Z,11.93
2022-09-28T15:10:29.542Z,11.96
2022-09-28T15:13:02.191Z,12.08
2022-09-28T15:15:38.443Z,12.03
2022-09-28T15:18:21.183Z,12.17
2022-09-28T15:20:51.856Z,12.24
2022-09-28T15:23:36.803Z,12.29
2022-09-28T15:26:10.208Z,12.20
2022-09-28T15:28:42.995Z,12.34
2022-09-28T15:31:18.370Z,12.40
2022-09-28T15:34:06.210Z,12.59
2022-09-28T15:36:46.799Z,12.80
2022-09-28T15:39:28.617Z,13.08
2022-09-28T15:41:59.357Z,13.10
2022-09-28T15:44:35.155Z,13.24
2022-09-28T15:47:09.794Z,13.24
2022-09-28T15:50:00.354Z,13.46
2022-09-28T15:52:42.157Z,13.55
2022-09-28T15:55:23.850Z,13.55
2022-09-28T15:58:08.738Z,13.71
2022-09-28T16:00:38.250Z,13.85
2022-09-28T16:03:13.622Z,14.10
2022-09-28T16:05:49.412Z,14.02
2022-09-28T16:08:25.370Z,13.97
2022-09-28T16:11:13.369Z,14.09
2022-09-28T16:13:52.746Z,14.05
2022-09-28T16:16:28.095Z,14.05
2022-09-28T16:19:00.935Z,14.08
2022-09-28T16:21:46.086Z,13.93
2022-09-28T16:24:25.062Z,13.84
2022-09-28T16:27:03.167Z,13.63
2022-09-28T16:29:42.800Z,13.61
2022-09-28T16:32:27.203Z,13.61
2022-09-28T16:35:25.342Z,13.59
2022-09-28T16:38:13.696Z,13.59
2022-09-28T16:40:47.126Z,13.37
2022-09-28T16:43:24.618Z,13.27
2022-09-28T16:45:58.109Z,13.40
2022-09-28T16:48:31.105Z,13.26
2022-09-28T16:51:00.842Z,13.16
2022-09-28T16:53:48.450Z,13.12
2022-09-28T16:56:18.442Z,13.09
2022-09-28T16:58:50.171Z,12.97
2022-09-28T17:01:20.921Z,12.97
2022-09-28T17:03:50.904Z,12.95
2022-09-28T17:06:25.093Z,13.01
2022-09-28T17:08:56.537Z,12.85
2022-09-28T17:11:26.322Z,12.92
2022-09-28T17:13:57.695Z,12.98
2022-09-28T17:19:02.512Z,12.75
2022-09-28T17:21:32.611Z,12.66
2022-09-28T17:24:02.546Z,12.43
2022-09-28T17:26:34.448Z,12.60
2022-09-28T17:29:06.104Z,12.40
2022-09-28T17:31:36.295Z,12.39
2022-09-28T17:34:08.171Z,12.39
2022-09-28T17:36:38.470Z,12.50
2022-09-28T17:39:10.076Z,12.31
2022-09-28T17:41:40.668Z,12.31
2022-09-28T17:44:13.372Z,12.33
2022-09-28T17:46:49.765Z,12.33
2022-09-28T17:49:19.548Z,12.25
2022-09-28T17:51:50.240Z,12.25
2022-09-28T17:54:21.189Z,12.35
2022-09-28T17:56:51.069Z,12.23
2022-09-28T17:59:20.816Z,12.19
2022-09-28T18:01:50.696Z,12.01
2022-09-28T18:04:40.149Z,12.08
2022-09-28T18:06:51.833Z,12.06
2022-09-28T18:09:23.362Z,12.01
2022-09-28T18:11:56.129Z,11.97
2022-09-28T18:14:25.702Z,11.91
2022-09-28T18:16:55.413Z,11.90
2022-09-28T18:19:28.556Z,11.93
2022-09-28T18:21:58.141Z,12.03
2022-09-28T18:24:27.871Z,11.89
2022-09-28T18:26:57.629Z,11.76
2022-09-28T18:29:31.024Z,11.72
2022-09-28T18:31:58.593Z,11.69
2022-09-28T18:34:28.087Z,11.56
2022-09-28T18:36:57.858Z,11.50
2022-09-28T18:39:27.353Z,11.62
2022-09-28T18:41:57.215Z,11.65
2022-09-28T18:44:27.352Z,11.46
2022-09-28T18:46:57.144Z,11.22
2022-09-28T18:49:26.970Z,11.22
2022-09-28T18:51:57.352Z,11.27
2022-09-28T18:54:27.086Z,11.21
2022-09-28T18:56:57.721Z,11.31
2022-09-28T18:59:27.813Z,11.17
2022-09-28T19:01:57.625Z,11.13
2022-09-28T19:04:27.055Z,11.09
2022-09-28T19:06:56.850Z,11.19
2022-09-28T19:09:26.670Z,11.13
2022-09-28T19:11:56.402Z,11.07
2022-09-28T19:14:25.828Z,10.97
2022-09-28T19:16:55.839Z,10.92
2022-09-28T19:19:25.861Z,10.89
2022-09-28T19:21:55.971Z,10.76
2022-09-28T19:24:25.748Z,10.83
2022-09-28T19:26:55.503Z,10.83
2022-09-28T19:29:25.687Z,10.76
2022-09-28T19:31:56.622Z,10.73
2022-09-28T19:34:28.086Z,10.66
2022-09-28T19:36:58.368Z,10.76
2022-09-28T19:39:28.089Z,10.65
2022-09-28T19:41:59.666Z,10.56
2022-09-28T19:44:31.105Z,10.61
2022-09-28T19:47:07.480Z,10.61
2022-09-28T19:49:39.042Z,10.49
2022-09-28T19:52:15.316Z,10.45
2022-09-28T19:54:49.192Z,10.45
2022-09-28T19:57:19.541Z,10.46
2022-09-28T19:59:52.626Z,10.46
2022-09-28T20:02:21.859Z,10.27
2022-09-28T20:04:51.607Z,10.27
2022-09-28T20:07:22.107Z,10.27
2022-09-28T20:09:51.841Z,10.21
2022-09-28T20:12:22.195Z,10.18
2022-09-28T20:14:51.918Z,10.19
2022-09-28T20:17:21.801Z,10.07
2022-09-28T20:19:51.802Z,10.07
2022-09-28T20:22:21.497Z,9.94
2022-09-28T20:24:51.200Z,9.95
2022-09-28T20:27:25.498Z,9.87
2022-09-28T20:29:52.666Z,9.89
2022-09-28T20:32:22.408Z,10.00
2022-09-28T20:34:52.134Z,9.92
2022-09-28T20:37:23.134Z,9.76
2022-09-28T20:39:53.341Z,9.74
2022-09-28T20:42:23.186Z,9.75
2022-09-28T20:44:52.953Z,9.62
2022-09-28T20:47:22.688Z,9.67
2022-09-28T20:49:52.434Z,9.66
2022-09-28T20:52:22.764Z,9.75
2022-09-28T20:54:52.497Z,9.70
2022-09-28T20:57:22.220Z,9.59
2022-09-28T20:59:54.702Z,9.60
2022-09-28T21:02:23.569Z,9.65
2022-09-28T21:04:54.092Z,9.53
2022-09-28T21:07:24.381Z,9.55
2022-09-28T21:09:54.111Z,9.56
2022-09-28T21:12:25.198Z,9.55
2022-09-28T21:14:54.898Z,9.45
2022-09-28T21:17:24.654Z,8.99
2022-09-28T21:19:54.199Z,8.99
2022-09-28T21:22:24.095Z,9.21
2022-09-28T21:24:53.846Z,8.92
2022-09-28T21:27:23.599Z,8.95
2022-09-28T21:29:53.658Z,8.95
2022-09-28T21:32:23.246Z,8.90
2022-09-28T21:34:53.039Z,9.01
2022-09-28T21:37:22.788Z,9.05
2022-09-28T21:39:52.887Z,9.08
2022-09-28T21:42:22.628Z,9.13
2022-09-28T21:44:55.302Z,9.02
2022-09-28T21:47:23.864Z,9.00
2022-09-28T21:49:53.707Z,8.76
2022-09-28T21:52:23.129Z,8.79
2022-09-28T21:54:52.867Z,8.97
2022-09-28T21:57:22.594Z,8.91
2022-09-28T21:59:52.218Z,8.91
2022-09-28T22:02:22.546Z,9.04
2022-09-28T22:04:52.577Z,8.91
2022-09-28T22:07:22.297Z,8.87
2022-09-28T22:09:53.591Z,8.82
2022-09-28T22:12:23.135Z,8.88
2022-09-28T22:14:52.866Z,8.84
2022-09-28T22:17:22.683Z,8.73
2022-09-28T22:19:52.414Z,8.78
2022-09-28T22:22:24.369Z,8.94
2022-09-28T22:24:54.824Z,8.67
2022-09-28T22:27:24.726Z,8.76
2022-09-28T22:29:54.277Z,8.74
2022-09-28T22:32:24.043Z,8.68
2022-09-28T22:34:53.856Z,8.77
2022-09-28T22:37:24.454Z,8.65
2022-09-28T22:39:56.111Z,8.51
2022-09-28T22:42:25.872Z,8.53
2022-09-28T22:44:55.616Z,8.53
2022-09-28T22:47:25.349Z,8.29
2022-09-28T22:49:55.111Z,8.29
2022-09-28T22:54:56.260Z,8.09
2022-09-28T22:57:25.995Z,8.17
2022-09-28T22:59:55.741Z,8.20
2022-09-28T23:02:25.591Z,8.38
2022-09-28T23:04:55.642Z,8.25
2022-09-28T23:07:26.135Z,8.20
2022-09-28T23:09:57.546Z,8.17
2022-09-28T23:12:27.706Z,8.20
2022-09-28T23:14:57.505Z,8.34
2022-09-28T23:17:27.525Z,8.28
2022-09-28T23:19:57.540Z,8.35
2022-09-28T23:22:26.999Z,8.35
2022-09-28T23:24:56.794Z,8.34
2022-09-28T23:27:26.533Z,8.06
2022-09-28T23:29:56.742Z,8.06
2022-09-28T23:32:29.820Z,8.33
2022-09-28T23:34:58.008Z,8.34
2022-09-28T23:37:27.899Z,8.32
2022-09-28T23:39:57.603Z,8.31
2022-09-28T23:42:27.055Z,8.08
2022-09-28T23:44:56.789Z,8.08
2022-09-28T23:47:26.591Z,8.14
2022-09-28T23:49:56.031Z,8.21
2022-09-28T23:52:25.658Z,8.03
2022-09-28T23:54:55.392Z,8.03
2022-09-28T23:57:25.452Z,8.22
2022-09-28T23:59:55.507Z,8.25
